Time;durP1;ratioP1;P1;durP2;ratioP2;P2;SDS_P1;SDS_P2;PMS_P1;PMS_P2;Temp;Humidity;BMP_temperature;BMP_pressure;BME280_temperature;BME280_humidity;BME280_pressure;Samples;Min_cycle;Max_cycle;Signal;HPM_P1;HPM_P2
2021/04/01 00:00:07;;;;;;;10.73;5.30;;;;;;;10.48;59.59;101123.05;113130;1209;64413;-77
2021/04/01 00:02:34;;;;;;;12.67;5.57;;;;;;;10.46;59.66;101111.78;113182;1209;64410;-77
2021/04/01 00:05:00;;;;;;;10.47;5.40;;;;;;;10.43;59.58;101112.09;112955;1209;64442;-77
2021/04/01 00:07:27;;;;;;;9.20;5.45;;;;;;;10.40;59.50;101110.59;113001;1209;64406;-78
2021/04/01 00:09:53;;;;;;;12.10;6.53;;;;;;;10.36;59.10;101109.27;113032;1209;64448;-77
2021/04/01 00:12:20;;;;;;;16.05;6.95;;;;;;;10.34;58.95;101115.73;113019;1209;64403;-78
2021/04/01 00:14:47;;;;;;;11.40;5.80;;;;;;;10.30;59.43;101111.73;113051;1209;64833;-79
2021/04/01 00:17:14;;;;;;;12.15;7.15;;;;;;;10.27;59.85;101104.09;113067;1209;64336;-77
2021/04/01 00:19:40;;;;;;;11.30;5.63;;;;;;;10.23;59.44;101110.71;113042;1209;64394;-77
2021/04/01 00:22:07;;;;;;;12.00;5.65;;;;;;;10.19;59.85;101108.36;112960;1209;64603;-77
2021/04/01 00:24:34;;;;;;;14.30;6.37;;;;;;;10.17;60.47;101107.70;112994;1209;64384;-77
2021/04/01 00:27:02;;;;;;;13.23;5.57;;;;;;;10.15;60.08;101107.03;112969;1209;64842;-77
2021/04/01 00:29:29;;;;;;;15.40;6.83;;;;;;;10.11;60.30;101107.52;113020;1209;64345;-78
2021/04/01 00:31:55;;;;;;;14.97;6.83;;;;;;;10.08;60.57;101111.33;113039;1209;64365;-77
2021/04/01 00:34:22;;;;;;;12.57;6.50;;;;;;;10.06;60.77;101105.36;113058;1209;64531;-78
2021/04/01 00:36:48;;;;;;;15.93;6.13;;;;;;;10.05;60.55;101102.86;113163;1209;64420;-79
2021/04/01 00:39:15;;;;;;;17.40;7.00;;;;;;;10.01;61.10;101102.38;113057;1208;64411;-77
2021/04/01 00:41:41;;;;;;;12.80;6.63;;;;;;;9.99;61.24;101102.53;113036;1209;64483;-77
2021/04/01 00:44:08;;;;;;;11.37;6.40;;;;;;;9.95;61.23;101098.53;113147;1209;64381;-78
2021/04/01 00:46:35;;;;;;;11.27;6.67;;;;;;;9.92;61.23;101095.37;113124;1209;64489;-77
2021/04/01 00:49:03;;;;;;;16.30;6.40;;;;;;;9.90;60.73;101094.70;113150;1209;64461;-76
2021/04/01 00:51:30;;;;;;;15.70;7.40;;;;;;;9.88;61.59;101094.88;113061;1209;64420;-76
2021/04/01 00:53:57;;;;;;;14.87;6.50;;;;;;;9.86;61.61;101096.01;112995;1209;65348;-78
2021/04/01 00:56:25;;;;;;;16.20;6.93;;;;;;;9.86;61.88;101093.36;113045;1209;64352;-77
2021/04/01 00:58:53;;;;;;;20.00;9.40;;;;;;;9.85;62.40;101091.71;113050;1209;64473;-77
2021/04/01 01:01:34;;;;;;;15.63;8.60;;;;;;;9.88;62.68;101083.42;112958;1209;64346;-76
2021/04/01 01:04:01;;;;;;;20.27;8.43;;;;;;;9.92;62.62;101082.12;112931;1208;64333;-76
2021/04/01 01:06:27;;;;;;;20.17;9.07;;;;;;;9.99;62.23;101077.85;112990;1209;64710;-80
2021/04/01 01:08:54;;;;;;;17.97;8.97;;;;;;;10.04;62.06;101075.53;113052;1209;65319;-77
2021/04/01 01:11:21;;;;;;;15.70;8.07;;;;;;;10.09;62.56;101069.73;112996;1209;64349;-76
2021/04/01 01:13:47;;;;;;;16.43;7.90;;;;;;;10.12;62.31;101070.25;113093;1209;64336;-78
2021/04/01 01:16:14;;;;;;;20.80;8.70;;;;;;;10.14;62.32;101065.62;112980;1209;64423;-77
2021/04/01 01:18:41;;;;;;;19.70;9.50;;;;;;;10.18;61.78;101064.30;113165;1209;64311;-79
2021/04/01 01:21:08;;;;;;;17.90;9.30;;;;;;;10.21;61.88;101061.31;113351;1209;64358;-78
2021/04/01 01:23:35;;;;;;;15.30;7.70;;;;;;;10.21;62.38;101066.61;113029;1209;64518;-78
2021/04/01 01:26:02;;;;;;;14.47;7.63;;;;;;;10.22;61.74;101064.78;113011;1209;64310;-77
2021/04/01 01:28:29;;;;;;;18.73;9.57;;;;;;;10.21;61.95;101065.80;112890;1209;65352;-78
2021/04/01 01:30:55;;;;;;;14.95;8.20;;;;;;;10.20;61.48;101059.67;112949;1209;64371;-76
2021/04/01 01:33:23;;;;;;;16.43;8.47;;;;;;;10.19;61.11;101055.34;112972;1209;65598;-77
2021/04/01 01:35:52;;;;;;;19.50;8.60;;;;;;;10.18;61.72;101063.48;112938;1209;64377;-77
2021/04/01 01:38:20;;;;;;;17.53;7.83;;;;;;;10.16;61.62;101060.98;113626;1209;64362;-79
2021/04/01 01:40:48;;;;;;;14.40;7.10;;;;;;;10.14;61.58;101059.50;113273;1209;64400;-78
2021/04/01 01:43:15;;;;;;;17.30;8.50;;;;;;;10.12;61.93;101059.65;113341;1209;64480;-79
2021/04/01 01:45:44;;;;;;;16.20;7.35;;;;;;;10.11;62.19;101057.16;113278;1209;64389;-79
2021/04/01 01:48:11;;;;;;;16.53;7.87;;;;;;;10.09;62.43;101056.48;113239;1209;64684;-78
2021/04/01 01:50:39;;;;;;;12.87;7.70;;;;;;;10.07;62.54;101056.64;113012;1209;64330;-78
2021/04/01 01:53:08;;;;;;;9.70;6.15;;;;;;;10.05;62.17;101058.66;113130;1209;64368;-78
2021/04/01 01:55:36;;;;;;;12.37;5.90;;;;;;;10.03;62.82;101055.34;113117;1209;64327;-77
2021/04/01 01:58:04;;;;;;;14.33;8.07;;;;;;;10.02;62.51;101058.14;113102;1209;64387;-78
2021/04/01 02:00:44;;;;;;;15.70;7.90;;;;;;;10.01;62.96;101052.02;113287;1208;64403;-78
2021/04/01 02:03:12;;;;;;;11.30;6.63;;;;;;;10.01;63.10;101046.72;113121;1209;64384;-78
2021/04/01 02:05:40;;;;;;;10.83;5.87;;;;;;;10.00;63.15;101050.34;113271;1209;64345;-78
2021/04/01 02:08:09;;;;;;;12.60;6.50;;;;;;;9.98;63.00;101052.33;113019;1209;64553;-76
2021/04/01 02:10:45;;;;;;;15.47;8.10;;;;;;;9.98;63.27;101049.67;113151;1209;64486;-79
2021/04/01 02:13:14;;;;;;;15.23;7.10;;;;;;;9.98;63.28;101052.33;113199;1209;64324;-78
2021/04/01 02:15:43;;;;;;;16.55;7.45;;;;;;;9.98;62.68;101052.33;113296;1209;64364;-77
2021/04/01 02:18:15;;;;;;;14.30;7.07;;;;;;;9.98;63.27;101039.89;113086;1209;64381;-77
2021/04/01 02:20:46;;;;;;;15.57;7.90;;;;;;;9.99;63.15;101044.22;113312;1209;64361;-79
2021/04/01 02:23:15;;;;;;;17.55;7.90;;;;;;;10.01;63.75;101044.06;113245;1209;65578;-79
2021/04/01 02:25:43;;;;;;;16.20;7.40;;;;;;;10.03;63.50;101039.43;113235;1209;64914;-77
2021/04/01 02:28:12;;;;;;;17.37;7.90;;;;;;;10.06;64.07;101044.39;113084;1209;64409;-78
2021/04/01 02:30:41;;;;;;;17.45;8.40;;;;;;;10.08;63.32;101028.34;113223;1209;64409;-77
2021/04/01 02:33:08;;;;;;;14.47;7.40;;;;;;;10.11;63.59;101033.30;113181;1209;64524;-78
2021/04/01 02:35:37;;;;;;;16.50;8.35;;;;;;;10.13;63.15;101032.13;113172;1209;64477;-78
2021/04/01 02:38:04;;;;;;;14.80;7.83;;;;;;;10.18;63.44;101032.48;113203;1209;64340;-78
2021/04/01 02:40:31;;;;;;;17.90;7.83;;;;;;;10.24;62.80;101035.47;113127;1209;64375;-77
2021/04/01 02:42:58;;;;;;;15.45;9.10;;;;;;;10.27;62.53;101032.50;112959;1209;64805;-79
2021/04/01 02:45:25;;;;;;;17.43;7.67;;;;;;;10.31;63.02;101032.03;113087;1209;64509;-78
2021/04/01 02:47:52;;;;;;;16.07;8.47;;;;;;;10.33;62.65;101029.23;113095;1209;64410;-79
2021/04/01 02:50:19;;;;;;;13.17;8.13;;;;;;;10.33;63.01;101026.58;113042;1209;64467;-78
2021/04/01 02:52:46;;;;;;;20.07;8.87;;;;;;;10.34;62.94;101026.39;113087;1209;64362;-79
2021/04/01 02:55:13;;;;;;;12.37;7.70;;;;;;;10.36;62.95;101028.88;113201;1209;64301;-79
2021/04/01 02:57:41;;;;;;;13.93;8.03;;;;;;;10.37;62.86;101025.22;113154;1209;64466;-79
2021/04/01 03:00:13;;;;;;;12.60;7.70;;;;;;;10.38;62.36;101026.89;113235;1209;64381;-79
2021/04/01 03:02:43;;;;;;;12.87;7.33;;;;;;;10.38;62.25;101026.89;113242;1209;64461;-78
2021/04/01 03:05:11;;;;;;;10.33;6.33;;;;;;;10.39;62.29;101028.53;113123;1209;64454;-79
2021/04/01 03:07:41;;;;;;;17.77;7.97;;;;;;;10.39;62.61;101028.53;113376;1209;64480;-79
2021/04/01 03:10:12;;;;;;;13.97;7.57;;;;;;;10.38;62.30;101034.85;113246;1209;64452;-78
2021/04/01 03:12:40;;;;;;;10.13;6.00;;;;;;;10.38;62.77;101040.16;113167;1209;64406;-80
2021/04/01 03:15:09;;;;;;;12.57;6.30;;;;;;;10.37;62.51;101041.98;113265;1209;64421;-77
2021/04/01 03:17:37;;;;;;;15.27;7.47;;;;;;;10.37;63.02;101043.78;113212;1209;64368;-78
2021/04/01 03:20:07;;;;;;;17.95;8.80;;;;;;;10.36;63.21;101044.80;113163;1209;64397;-78
2021/04/01 03:22:34;;;;;;;17.80;7.83;;;;;;;10.37;62.96;101041.98;113283;1209;64352;-79
2021/04/01 03:25:01;;;;;;;15.77;7.43;;;;;;;10.38;63.12;101038.33;113387;1209;64400;-79
2021/04/01 03:27:27;;;;;;;15.90;7.57;;;;;;;10.39;63.07;101036.50;113237;1209;64329;-78
2021/04/01 03:30:04;;;;;;;18.60;7.60;;;;;;;10.40;63.19;101040.82;113292;1209;64390;-78
2021/04/01 03:32:32;;;;;;;18.35;7.30;;;;;;;10.41;63.31;101042.46;113409;1209;64420;-79
2021/04/01 03:34:59;;;;;;;16.93;7.87;;;;;;;10.41;63.93;101042.46;113378;1209;64375;-79
2021/04/01 03:37:27;;;;;;;12.40;7.43;;;;;;;10.40;63.73;101046.13;113305;1209;64387;-78
2021/04/01 03:39:54;;;;;;;16.05;8.50;;;;;;;10.38;64.34;101043.63;113123;1209;64388;-78
2021/04/01 03:42:21;;;;;;;15.75;8.00;;;;;;;10.37;64.06;101041.13;113164;1209;65590;-79
2021/04/01 03:44:48;;;;;;;16.63;9.33;;;;;;;10.37;64.21;101041.13;113517;1209;64349;-80
2021/04/01 03:47:15;;;;;;;16.40;8.13;;;;;;;10.38;64.05;101042.81;113211;1209;64387;-79
2021/04/01 03:49:42;;;;;;;20.90;9.70;;;;;;;10.38;63.31;101034.85;113178;1209;64317;-79
2021/04/01 03:52:08;;;;;;;20.03;10.13;;;;;;;10.39;63.68;101032.05;113226;1209;64392;-78
2021/04/01 03:54:35;;;;;;;18.23;8.33;;;;;;;10.41;63.92;101037.16;113158;1209;64375;-80
2021/04/01 03:57:03;;;;;;;19.57;9.00;;;;;;;10.43;63.23;101027.22;113239;1209;64458;-80
2021/04/01 04:07:37;;;;;;;16.97;9.83;;;;;;;10.57;64.02;101031.86;113909;1207;64259;-80
2021/04/01 04:10:14;;;;;;;20.47;10.33;;;;;;;10.66;63.38;101029.20;116157;1209;64192;-81
2021/04/01 04:12:58;;;;;;;24.33;10.97;;;;;;;10.73;62.87;101023.08;113741;1209;64528;-77
2021/04/01 04:15:25;;;;;;;18.50;9.70;;;;;;;10.81;62.87;101038.14;113116;1209;64768;-77
2021/04/01 04:17:52;;;;;;;25.50;11.20;;;;;;;10.89;62.87;101030.17;113037;1209;64415;-76
2021/04/01 04:20:19;;;;;;;22.07;10.77;;;;;;;10.94;62.38;101022.52;113008;1209;64410;-78
2021/04/01 04:22:50;;;;;;;23.40;10.55;;;;;;;10.98;62.05;101013.22;112970;1209;64492;-78
2021/04/01 04:25:18;;;;;;;19.85;11.20;;;;;;;11.05;61.47;101013.39;113225;1209;65620;-78
2021/04/01 04:30:15;;;;;;;17.80;10.43;;;;;;;11.10;61.46;101005.73;112927;1209;64394;-77
2021/04/01 04:32:42;;;;;;;17.30;9.47;;;;;;;11.12;61.73;101013.53;113028;1209;64345;-78
2021/04/01 04:35:10;;;;;;;18.40;9.83;;;;;;;11.14;61.00;101022.16;113202;1209;64384;-79
2021/04/01 04:37:37;;;;;;;22.40;11.10;;;;;;;11.15;61.37;101014.00;113293;1209;64483;-78
2021/04/01 04:40:05;;;;;;;18.37;9.87;;;;;;;11.15;61.07;101021.97;113380;1209;64314;-79
2021/04/01 04:42:32;;;;;;;20.30;10.20;;;;;;;11.16;61.20;101026.30;113384;1209;64416;-79
2021/04/01 04:44:58;;;;;;;20.23;10.47;;;;;;;11.17;61.40;101027.11;113295;1209;64391;-80
2021/04/01 04:47:25;;;;;;;18.77;9.13;;;;;;;11.18;60.77;101031.45;113148;1209;64317;-79
2021/04/01 04:49:52;;;;;;;18.00;10.03;;;;;;;11.16;61.45;101030.78;113275;1209;64949;-79
2021/04/01 04:52:20;;;;;;;25.75;10.10;;;;;;;11.12;61.50;101030.28;113236;1209;64359;-79
2021/04/01 04:54:47;;;;;;;20.23;10.87;;;;;;;11.12;61.23;101029.47;113205;1209;64345;-79
2021/04/01 04:57:24;;;;;;;24.17;11.17;;;;;;;11.09;61.01;101033.27;113170;1209;64579;-79
2021/04/01 05:05:23;;;;;;;31.30;13.17;;;;;;;11.06;61.12;101035.45;113099;1209;64378;-78
2021/04/01 05:07:49;;;;;;;18.63;9.80;;;;;;;11.04;60.89;101029.48;113350;1209;64410;-79
2021/04/01 05:10:16;;;;;;;21.75;9.95;;;;;;;11.02;60.36;101030.47;113253;1209;64314;-78
2021/04/01 05:12:46;;;;;;;19.50;9.57;;;;;;;11.02;60.56;101030.47;113207;1209;64426;-78
2021/04/01 05:15:13;;;;;;;20.20;10.00;;;;;;;11.04;60.55;101037.45;113121;1209;64378;-80
2021/04/01 05:17:39;;;;;;;21.77;11.47;;;;;;;11.05;60.18;101029.33;113157;1209;64394;-79
2021/04/01 05:20:07;;;;;;;19.13;9.50;;;;;;;11.09;60.37;101029.79;113278;1209;64422;-79
2021/04/01 05:23:02;;;;;;;20.40;9.75;;;;;;;11.12;60.79;101045.40;113146;1209;64542;-79
2021/04/01 05:25:22;;;;;;;27.90;12.67;;;;;;;11.15;60.11;101034.42;112956;1209;65585;-79
2021/04/01 05:27:54;;;;;;;30.80;12.15;;;;;;;11.19;60.51;101033.91;112993;1209;64576;-78
2021/04/01 05:30:21;;;;;;;37.67;13.60;;;;;;;11.22;60.42;101032.77;113084;1209;64400;-78
2021/04/01 05:32:47;;;;;;;30.83;10.83;;;;;;;11.26;60.14;101043.84;112995;1209;64419;-77
2021/04/01 05:35:16;;;;;;;26.73;10.10;;;;;;;11.27;59.91;101038.38;113052;1209;64359;-76
2021/04/01 05:37:43;;;;;;;35.60;11.75;;;;;;;11.30;59.88;101037.20;113167;1209;64384;-76
2021/04/01 05:40:11;;;;;;;29.50;12.17;;;;;;;11.33;59.68;101043.01;112949;1209;64541;-77
2021/04/01 05:42:39;;;;;;;32.05;10.95;;;;;;;11.36;59.63;101042.66;113049;1209;64380;-78
2021/04/01 05:47:39;;;;;;;25.10;12.30;;;;;;;11.41;59.78;101047.44;113051;1209;64418;-78
2021/04/01 06:04:02;;;;;;;26.20;12.10;;;;;;;11.68;59.75;101062.12;112823;1209;64413;-78
2021/04/01 06:06:40;;;;;;;27.50;13.75;;;;;;;11.71;58.51;101061.79;113001;1209;65629;-77
2021/04/01 06:09:19;;;;;;;24.05;11.30;;;;;;;11.78;59.02;101044.13;113134;1209;64549;-77
2021/04/01 06:11:57;;;;;;;22.73;11.80;;;;;;;11.86;58.53;101042.42;112996;1209;64438;-77
2021/04/01 06:14:33;;;;;;;26.53;13.73;;;;;;;11.95;57.88;101038.77;112931;1209;64428;-78
2021/04/01 06:17:08;;;;;;;21.20;11.90;;;;;;;12.04;57.42;101037.70;113154;1209;64362;-78
2021/04/01 06:19:35;;;;;;;;;;;;;;;12.14;57.54;101046.28;113054;1216;64451;-77
2021/04/01 06:22:05;;;;;;;29.15;11.80;;;;;;;12.24;56.80;101054.86;113026;1208;64419;-77
2021/04/01 06:24:34;;;;;;;31.35;15.10;;;;;;;12.33;56.23;101049.48;113124;1209;64362;-77
2021/04/01 06:27:16;;;;;;;29.63;13.30;;;;;;;12.43;56.40;101042.92;113136;1208;64371;-76
2021/04/01 06:32:37;;;;;;;27.53;15.50;;;;;;;12.62;55.70;101054.05;113176;1209;64384;-79
2021/04/01 06:35:23;;;;;;;32.47;15.07;;;;;;;12.70;55.48;101045.19;113251;1209;64729;-79
2021/04/01 06:40:36;;;;;;;;;;;;;;;12.89;53.85;101049.17;113116;1216;64544;-77
2021/04/01 06:43:17;;;;;;;33.07;12.90;;;;;;;12.96;53.67;101039.44;112922;1209;64441;-78
2021/04/01 06:46:00;;;;;;;33.83;14.47;;;;;;;13.04;53.62;101034.03;112855;1209;64496;-78
2021/04/01 06:51:13;;;;;;;37.87;16.60;;;;;;;13.22;52.13;101041.67;115934;1208;62989;-79
2021/04/01 06:53:58;;;;;;;32.50;16.90;;;;;;;13.31;52.33;101031.78;113435;1209;65019;-77
2021/04/01 06:57:02;;;;;;;34.50;13.57;;;;;;;13.41;51.93;101022.48;113150;1209;64374;-78
2021/04/01 06:59:47;;;;;;;34.47;15.07;;;;;;;13.50;51.24;101041.05;113067;1209;65546;-77
2021/04/01 07:02:32;;;;;;;38.13;15.63;;;;;;;13.55;51.44;101049.30;112993;1209;64382;-79
2021/04/01 07:05:26;;;;;;;48.53;16.67;;;;;;;13.57;51.25;101052.61;113155;1209;64544;-77
2021/04/01 07:08:03;;;;;;;48.10;14.60;;;;;;;13.59;51.52;101034.59;113039;1209;65570;-75
2021/04/01 07:11:02;;;;;;;39.70;16.15;;;;;;;13.64;51.45;101027.70;112964;1209;64378;-74
2021/04/01 07:13:41;;;;;;;36.90;17.67;;;;;;;13.71;51.07;101049.10;112962;1209;64601;-74
2021/04/01 07:16:13;;;;;;;39.90;16.05;;;;;;;13.72;50.68;101122.73;113969;1209;65924;-75
2021/04/01 07:48:51;;;;;;;37.03;17.93;;;;;;;14.17;49.37;101103.98;112944;1209;64320;-76
2021/04/01 07:51:55;;;;;;;42.23;18.70;;;;;;;14.15;49.38;101109.48;113448;1209;64451;-75
2021/04/01 07:54:28;;;;;;;35.05;16.65;;;;;;;14.17;49.02;101115.47;112980;1209;64423;-75
2021/04/01 07:57:18;;;;;;;39.45;17.25;;;;;;;14.30;49.10;101113.97;113214;1209;64406;-74
2021/04/01 08:02:31;;;;;;;32.23;15.23;;;;;;;14.54;47.98;101131.48;113500;1209;64828;-76
2021/04/01 08:04:58;;;;;;;31.53;16.40;;;;;;;14.61;48.46;101119.86;113173;1209;64355;-76
2021/04/01 08:07:31;;;;;;;36.33;17.07;;;;;;;14.71;48.09;101119.55;112905;1208;64410;-73
2021/04/01 08:10:04;;;;;;;41.87;17.93;;;;;;;14.76;46.30;101132.32;112960;1209;64330;-74
2021/04/01 08:12:42;;;;;;;44.03;19.90;;;;;;;14.83;45.97;101133.20;112944;1209;64535;-74
2021/04/01 08:15:16;;;;;;;39.33;18.10;;;;;;;14.88;46.52;101122.78;113033;1209;64422;-76
2021/04/01 08:18:01;;;;;;;41.17;18.40;;;;;;;14.92;45.42;101132.06;113080;1209;64413;-76
2021/04/01 08:20:30;;;;;;;41.67;19.87;;;;;;;14.87;45.24;101113.09;112865;1209;64383;-75
2021/04/01 08:26:20;;;;;;;46.17;21.33;;;;;;;14.93;45.15;101084.80;112930;1209;65559;-74
2021/04/01 08:32:18;;;;;;;41.43;21.73;;;;;;;15.08;45.90;101072.16;112981;1209;64396;-75
2021/04/01 08:35:05;;;;;;;40.93;19.27;;;;;;;15.07;44.83;101083.88;112939;1209;64368;-75
2021/04/01 08:40:48;;;;;;;55.60;23.05;;;;;;;14.97;45.61;101070.03;112995;1209;64406;-76
2021/04/01 08:44:06;;;;;;;41.17;20.60;;;;;;;15.02;45.36;101071.08;115025;1209;64355;-75
2021/04/01 08:46:56;;;;;;;52.57;21.27;;;;;;;15.12;44.09;101072.60;112943;1209;65818;-75
2021/04/01 08:49:43;;;;;;;49.40;23.10;;;;;;;15.19;44.14;101084.15;113133;1209;64548;-77
2021/04/01 08:52:34;;;;;;;45.85;20.95;;;;;;;15.26;42.67;101090.38;113002;1209;64394;-75
2021/04/01 08:55:04;;;;;;;47.43;22.60;;;;;;;15.28;41.46;101082.99;113052;1209;64408;-76
2021/04/01 08:58:04;;;;;;;38.40;17.90;;;;;;;15.34;41.22;101079.50;112915;1209;64371;-78
2021/04/01 09:00:32;;;;;;;44.57;19.50;;;;;;;15.46;41.51;101080.61;112946;1209;64352;-75
2021/04/01 09:02:59;;;;;;;49.50;23.57;;;;;;;15.56;41.57;101082.11;113461;1209;64486;-77
2021/04/01 09:05:26;;;;;;;44.15;19.35;;;;;;;15.63;41.39;101082.95;113264;1209;64365;-76
2021/04/01 09:08:02;;;;;;;56.35;24.60;;;;;;;15.77;41.63;101076.68;112931;1209;64413;-77
2021/04/01 09:10:39;;;;;;;47.80;19.35;;;;;;;15.85;39.56;101073.84;113416;1209;64365;-77
2021/04/01 09:13:19;;;;;;;48.70;23.07;;;;;;;15.96;40.01;101068.91;113205;1209;64365;-77
2021/04/01 09:18:45;;;;;;;49.57;20.53;;;;;;;16.04;38.32;101068.72;112943;1209;64419;-76
2021/04/01 09:21:14;;;;;;;51.13;23.65;;;;;;;16.08;37.92;101069.97;113000;1209;64380;-74
2021/04/01 09:23:48;;;;;;;55.95;24.90;;;;;;;16.08;38.07;101078.81;113018;1209;65157;-74
2021/04/01 09:26:23;;;;;;;45.95;21.65;;;;;;;16.15;38.21;101070.83;112918;1209;64359;-74
2021/04/01 09:28:59;;;;;;;57.23;26.97;;;;;;;16.26;38.40;101072.91;112876;1209;64364;-76
2021/04/01 09:31:32;;;;;;;58.00;26.20;;;;;;;16.31;36.94;101070.43;113015;1209;64396;-74
2021/04/01 09:33:59;;;;;;;61.37;27.27;;;;;;;16.39;37.57;101082.00;113906;1209;64384;-75
2021/04/01 09:36:38;;;;;;;44.50;18.80;;;;;;;16.46;37.72;101080.14;112925;1209;64368;-73
2021/04/01 09:39:26;;;;;;;63.50;28.50;;;;;;;16.51;37.65;101074.98;113028;1207;64359;-73
2021/04/01 09:42:03;;;;;;;46.27;22.37;;;;;;;16.64;38.14;101069.66;113004;1209;64490;-74
2021/04/01 09:44:29;;;;;;;60.60;25.53;;;;;;;16.82;38.37;101078.95;112947;1209;64477;-74
2021/04/01 09:47:42;;;;;;;59.10;25.50;;;;;;;16.83;37.18;101096.66;112944;1209;64368;-75
2021/04/01 09:50:11;;;;;;;48.73;22.37;;;;;;;16.70;37.48;101092.94;112997;1209;64848;-75
2021/04/01 09:52:58;;;;;;;58.37;24.13;;;;;;;16.68;37.89;101096.83;115980;1209;63652;-76
2021/04/01 09:55:34;;;;;;;50.95;21.65;;;;;;;16.70;38.14;101094.77;113983;1209;64531;-75
2021/04/01 09:58:15;;;;;;;62.35;27.65;;;;;;;16.77;38.46;101108.20;112965;1209;64434;-74
2021/04/01 10:03:38;;;;;;;57.80;25.10;;;;;;;16.91;39.33;101099.95;112918;1209;64316;-79
2021/04/01 10:06:05;;;;;;;52.70;25.15;;;;;;;16.97;39.96;101109.03;113030;1209;64380;-75
2021/04/01 10:08:37;;;;;;;61.85;27.35;;;;;;;17.01;39.70;101106.77;112912;1209;64534;-76
2021/04/01 10:11:13;;;;;;;53.23;22.50;;;;;;;16.97;38.91;101109.03;113076;1209;64308;-77
2021/04/01 10:13:39;;;;;;;55.80;24.33;;;;;;;16.96;39.14;101107.40;112940;1209;64375;-76
2021/04/01 10:16:23;;;;;;;56.00;24.37;;;;;;;17.00;38.72;101113.99;112919;1209;64415;-75
2021/04/01 10:18:51;;;;;;;59.30;22.55;;;;;;;17.02;37.93;101127.16;112977;1209;64362;-76
2021/04/01 10:21:18;;;;;;;53.95;25.65;;;;;;;16.98;38.02;101115.20;113703;1209;64889;-75
2021/04/01 10:23:47;;;;;;;56.67;25.90;;;;;;;17.04;37.91;101117.91;113034;1209;64400;-76
2021/04/01 10:26:16;;;;;;;56.05;23.05;;;;;;;17.18;38.52;101115.20;112960;1209;64361;-76
2021/04/01 10:29:01;;;;;;;63.60;27.60;;;;;;;17.22;37.34;101127.17;113535;1209;64471;-75
2021/04/01 10:31:30;;;;;;;56.27;22.77;;;;;;;17.17;37.57;101118.91;112990;1209;64352;-75
2021/04/01 10:34:15;;;;;;;59.75;25.70;;;;;;;17.27;38.11;101119.31;113033;1209;64381;-77
2021/04/01 10:36:43;;;;;;;57.93;26.53;;;;;;;17.32;38.08;101117.66;112970;1209;64410;-76
2021/04/01 10:39:11;;;;;;;57.00;25.63;;;;;;;17.38;38.43;101124.02;112922;1209;64313;-76
2021/04/01 10:41:45;;;;;;;57.10;29.30;;;;;;;17.31;38.92;101120.55;112957;1209;64311;-76
2021/04/01 10:44:12;;;;;;;58.10;25.53;;;;;;;17.33;39.22;101121.16;113010;1209;64307;-77
2021/04/01 10:46:46;;;;;;;61.13;27.50;;;;;;;17.32;38.31;101119.52;113100;1209;64506;-76
2021/04/01 10:49:13;;;;;;;65.78;29.85;;;;;;;17.36;40.03;101123.41;113485;1209;64416;-75
2021/04/01 10:51:52;;;;;;;50.70;26.30;;;;;;;17.32;40.54;101133.75;112958;1209;64729;-75
2021/04/01 10:54:24;;;;;;;47.15;24.25;;;;;;;17.45;40.21;101126.72;112921;1209;64374;-76
2021/04/01 10:56:55;;;;;;;59.60;27.53;;;;;;;17.44;39.79;101119.69;112967;1209;64400;-76
2021/04/01 10:59:40;;;;;;;58.00;27.20;;;;;;;17.38;40.02;101134.75;113019;1209;64387;-76
2021/04/01 11:02:14;;;;;;;50.40;26.95;;;;;;;17.27;40.09;101140.76;113065;1209;64381;-76
2021/04/01 11:04:43;;;;;;;60.45;30.40;;;;;;;17.27;41.27;101127.35;112990;1209;64378;-76
2021/04/01 11:07:10;;;;;;;54.90;27.10;;;;;;;17.25;41.93;101137.46;113230;1209;64514;-78
2021/04/01 11:09:40;;;;;;;61.27;32.70;;;;;;;17.20;42.37;101139.95;112957;1209;64454;-77
2021/04/01 11:12:17;;;;;;;54.50;27.17;;;;;;;17.15;43.40;101147.78;112951;1209;65608;-76
2021/04/01 11:14:47;;;;;;;55.10;27.40;;;;;;;17.09;42.38;101134.19;112993;1209;64397;-74
2021/04/01 11:17:17;;;;;;;60.43;30.80;;;;;;;17.19;42.68;101141.82;112955;1209;64365;-76
2021/04/01 11:19:46;;;;;;;52.13;27.50;;;;;;;17.26;44.08;101137.27;113027;1209;64457;-74
2021/04/01 11:22:13;;;;;;;51.93;24.33;;;;;;;17.28;43.34;101155.83;113027;1209;64764;-76
2021/04/01 11:24:40;;;;;;;47.77;26.10;;;;;;;17.28;43.29;101153.97;113099;1209;64378;-76
2021/04/01 11:27:15;;;;;;;48.73;26.03;;;;;;;17.18;44.21;101158.10;112962;1209;64452;-76
2021/04/01 11:29:51;;;;;;;41.10;22.70;;;;;;;16.96;44.75;101171.72;112929;1209;64391;-78
2021/04/01 11:32:23;;;;;;;45.20;24.90;;;;;;;16.93;44.97;101158.71;113166;1209;64397;-76
2021/04/01 11:34:53;;;;;;;51.45;26.40;;;;;;;16.90;45.53;101167.17;113186;1209;64401;-77
2021/04/01 11:37:22;;;;;;;46.70;22.70;;;;;;;16.82;46.68;101159.33;113217;1209;64419;-78
2021/04/01 11:39:55;;;;;;;44.77;21.90;;;;;;;16.85;48.14;101185.70;113753;1209;64375;-78
2021/04/01 11:42:22;;;;;;;36.53;20.13;;;;;;;16.80;48.17;101167.56;113211;1209;64256;-79
2021/04/01 11:44:57;;;;;;;36.30;20.50;;;;;;;16.86;49.32;101209.63;113174;1209;64313;-79
2021/04/01 11:47:24;;;;;;;43.83;21.43;;;;;;;16.93;49.01;101188.19;113095;1209;64422;-74
2021/04/01 11:49:52;;;;;;;30.30;17.90;;;;;;;17.16;48.94;101186.97;112970;1209;64400;-76
2021/04/01 11:52:21;;;;;;;30.30;16.30;;;;;;;17.22;47.64;101195.02;113045;1209;64355;-76
2021/04/01 11:54:53;;;;;;;25.90;14.90;;;;;;;17.39;47.26;101182.01;112976;1209;64384;-76
2021/04/01 11:57:32;;;;;;;25.17;14.37;;;;;;;17.68;46.53;101180.73;112991;1209;64384;-76
2021/04/01 12:00:14;;;;;;;27.90;15.15;;;;;;;17.70;45.99;101196.59;113177;1209;65062;-75
2021/04/01 12:02:52;;;;;;;28.83;15.40;;;;;;;17.57;46.17;101207.36;112971;1209;64432;-76
2021/04/01 12:05:19;;;;;;;26.00;15.55;;;;;;;17.75;45.91;101207.54;112931;1209;64499;-76
2021/04/01 12:07:46;;;;;;;22.07;12.77;;;;;;;17.60;46.12;101194.36;112944;1209;64361;-76
2021/04/01 12:10:14;;;;;;;22.10;13.93;;;;;;;17.85;45.38;101207.97;112921;1209;64358;-76
2021/04/01 12:12:41;;;;;;;19.80;11.10;;;;;;;18.11;44.08;101206.23;112923;1209;64413;-76
2021/04/01 12:15:08;;;;;;;19.73;10.27;;;;;;;18.16;44.37;101201.03;112913;1209;64461;-77
2021/04/01 12:17:45;;;;;;;28.25;11.80;;;;;;;18.50;43.99;101207.08;113022;1209;64403;-76
2021/04/01 12:20:14;;;;;;;16.67;8.23;;;;;;;18.77;41.63;101205.06;112966;1209;64420;-77
2021/04/01 12:22:44;;;;;;;15.30;8.07;;;;;;;18.98;41.47;101198.55;113030;1209;64444;-76
2021/04/01 12:25:16;;;;;;;13.13;7.97;;;;;;;19.42;40.27;101202.08;112986;1209;64368;-76
2021/04/01 12:27:55;;;;;;;12.50;6.80;;;;;;;19.82;40.44;101207.10;112990;1209;64371;-77
2021/04/01 12:30:28;;;;;;;14.05;6.85;;;;;;;19.95;38.05;101200.74;112990;1209;64423;-76
2021/04/01 12:33:18;;;;;;;8.97;4.83;;;;;;;20.39;36.83;101196.06;113261;1209;64333;-77
2021/04/01 12:35:54;;;;;;;9.07;3.43;;;;;;;20.95;35.29;101204.81;113118;1209;64803;-76
2021/04/01 12:38:32;;;;;;;8.57;3.20;;;;;;;21.83;34.03;101196.91;112988;1209;64352;-76
2021/04/01 12:41:05;;;;;;;6.60;3.47;;;;;;;23.04;32.97;101185.97;112981;1209;64722;-74
2021/04/01 12:43:34;;;;;;;5.40;2.67;;;;;;;23.80;30.53;101191.70;113059;1209;64375;-76
2021/04/01 12:46:05;;;;;;;4.80;1.45;;;;;;;24.30;28.97;101208.00;113042;1209;64457;-76
2021/04/01 12:48:41;;;;;;;5.23;2.00;;;;;;;24.69;28.73;101184.27;113158;1209;64908;-74
2021/04/01 12:51:09;;;;;;;2.73;1.20;;;;;;;25.00;27.79;101182.64;113027;1209;64409;-75
2021/04/01 12:53:36;;;;;;;2.87;1.00;;;;;;;24.90;27.10;101192.60;112954;1209;64448;-76
2021/04/01 12:56:16;;;;;;;2.73;1.10;;;;;;;24.51;27.60;101190.91;113027;1209;64352;-75